Time;durP1;ratioP1;P1;durP2;ratioP2;P2;SDS_P1;SDS_P2;PMS_P1;PMS_P2;Temp;Humidity;BMP_temperature;BMP_pressure;BME280_temperature;BME280_humidity;BME280_pressure;Samples;Min_cycle;Max_cycle;Signal;HPM_P1;HPM_P2
2023/03/18 00:00:24;;;;;;;16.88;10.70;;;;;;;18.77;44.33;100854.72;5041650;28;20049;-34
2023/03/18 00:02:51;;;;;;;17.20;10.25;;;;;;;18.77;44.38;100858.25;5044788;28;20056;-35
2023/03/18 00:05:19;;;;;;;15.80;10.18;;;;;;;18.76;44.61;100861.94;5047119;28;20106;-34
2023/03/18 00:07:46;;;;;;;17.48;10.80;;;;;;;18.78;44.21;100851.91;5046141;28;20055;-34
2023/03/18 00:10:12;;;;;;;17.77;10.60;;;;;;;18.79;44.53;100856.28;5042796;28;20081;-35
2023/03/18 00:12:40;;;;;;;16.48;10.43;;;;;;;18.78;44.27;100857.28;5049996;28;20518;-34
2023/03/18 00:15:09;;;;;;;16.20;9.60;;;;;;;18.80;44.19;100857.09;5044497;28;20056;-35
2023/03/18 00:17:36;;;;;;;18.08;10.52;;;;;;;18.82;44.07;100868.56;5041244;28;20047;-34
2023/03/18 00:20:05;;;;;;;15.10;9.68;;;;;;;18.82;44.15;100857.81;5046407;28;20092;-34
2023/03/18 00:22:33;;;;;;;14.65;9.48;;;;;;;18.81;44.26;100866.84;5046088;28;20337;-34
2023/03/18 00:25:01;;;;;;;15.95;9.55;;;;;;;18.83;44.07;100875.59;5044582;28;20076;-35
2023/03/18 00:27:27;;;;;;;16.13;10.13;;;;;;;18.83;44.19;100870.22;5047233;28;20060;-34
2023/03/18 00:29:54;;;;;;;15.98;9.40;;;;;;;18.82;44.13;100877.44;5044956;28;20061;-35
2023/03/18 00:32:21;;;;;;;19.30;10.43;;;;;;;18.82;44.01;100868.56;5046125;28;20041;-37
2023/03/18 00:34:49;;;;;;;15.50;9.93;;;;;;;18.83;44.39;100875.59;5044756;28;20124;-35
2023/03/18 00:37:28;;;;;;;16.77;10.38;;;;;;;18.84;43.98;100872.75;5044688;28;20103;-34
2023/03/18 00:40:06;;;;;;;16.15;10.15;;;;;;;18.82;44.27;100880.13;5045998;28;20140;-35
2023/03/18 00:42:46;;;;;;;15.75;9.27;;;;;;;18.83;44.47;100878.28;5048834;28;20059;-35
2023/03/18 00:45:15;;;;;;;15.30;9.48;;;;;;;18.83;44.28;100883.66;5048557;28;20136;-34
2023/03/18 00:47:42;;;;;;;14.52;9.90;;;;;;;18.82;44.22;100881.97;5051075;28;20049;-34
2023/03/18 00:50:10;;;;;;;12.38;8.75;;;;;;;18.82;43.87;100871.22;5048356;28;20053;-35
2023/03/18 00:52:37;;;;;;;16.77;9.82;;;;;;;18.81;44.25;100880.28;5049490;28;20052;-35
2023/03/18 00:55:04;;;;;;;15.18;9.38;;;;;;;18.81;44.02;100880.28;5050907;28;20120;-34
2023/03/18 00:57:30;;;;;;;13.60;8.68;;;;;;;18.81;44.06;100874.91;5052517;28;20060;-35
2023/03/18 00:59:58;;;;;;;13.43;8.15;;;;;;;18.81;44.13;100873.06;5052035;28;20136;-35
2023/03/18 01:02:25;;;;;;;14.90;9.10;;;;;;;18.81;43.98;100869.53;5052877;28;20155;-35
2023/03/18 01:04:52;;;;;;;14.25;8.82;;;;;;;18.81;43.91;100864.16;5048511;28;20131;-35
2023/03/18 01:07:18;;;;;;;15.90;9.80;;;;;;;18.82;43.97;100865.88;5051911;28;20099;-35
2023/03/18 01:09:45;;;;;;;12.07;8.23;;;;;;;18.82;44.08;100852.44;5051507;28;20048;-35
2023/03/18 01:12:12;;;;;;;13.65;8.57;;;;;;;18.79;44.30;100858.13;5051102;28;20103;-35
2023/03/18 01:14:39;;;;;;;15.30;8.52;;;;;;;18.79;43.91;100867.00;5048642;28;20049;-35
2023/03/18 01:17:07;;;;;;;16.08;8.68;;;;;;;18.79;44.10;100861.63;5048719;28;20492;-35
2023/03/18 01:19:35;;;;;;;13.02;8.55;;;;;;;18.79;43.73;100867.00;5047770;28;20428;-35
2023/03/18 01:22:02;;;;;;;13.88;7.60;;;;;;;18.79;44.41;100871.53;5046917;28;20052;-34
2023/03/18 01:24:29;;;;;;;13.70;8.18;;;;;;;18.78;43.87;100875.25;5046373;28;20058;-34
2023/03/18 01:26:57;;;;;;;12.55;8.43;;;;;;;18.77;44.19;100865.47;5045807;28;20322;-34
2023/03/18 01:29:24;;;;;;;14.65;8.63;;;;;;;18.77;43.77;100877.06;5045986;28;20053;-34
2023/03/18 01:31:50;;;;;;;12.88;8.52;;;;;;;18.75;43.99;100871.00;5046086;28;20824;-34
2023/03/18 01:34:17;;;;;;;14.32;8.45;;;;;;;18.74;44.17;100870.19;5045113;28;20056;-35
2023/03/18 01:36:45;;;;;;;15.73;8.68;;;;;;;18.74;44.20;100870.19;5046694;28;20048;-34
2023/03/18 01:39:11;;;;;;;11.80;8.07;;;;;;;18.73;44.63;100865.81;5046938;28;20049;-35
2023/03/18 01:41:39;;;;;;;13.23;8.27;;;;;;;18.73;44.25;100870.31;5045153;28;20404;-34
2023/03/18 01:44:22;;;;;;;14.10;9.05;;;;;;;18.70;44.58;100868.81;5045377;28;20456;-35
2023/03/18 01:46:50;;;;;;;13.43;7.97;;;;;;;18.72;44.32;100874.84;5045370;28;20443;-35
2023/03/18 01:49:20;;;;;;;13.20;7.95;;;;;;;18.69;44.54;100877.84;5044177;28;20440;-35
2023/03/18 01:51:56;;;;;;;12.93;7.50;;;;;;;18.69;44.27;100880.53;5046763;28;20041;-35
2023/03/18 01:54:25;;;;;;;13.57;7.85;;;;;;;18.69;44.27;100882.34;5048490;28;20510;-34
2023/03/18 01:56:52;;;;;;;11.60;7.65;;;;;;;18.67;44.19;100874.44;5047425;28;20175;-34
2023/03/18 01:59:22;;;;;;;11.15;7.07;;;;;;;18.66;44.51;100880.81;5046335;28;20049;-34
2023/03/18 02:01:55;;;;;;;11.68;7.35;;;;;;;18.66;44.21;100880.00;5045290;28;20055;-34
2023/03/18 02:04:26;;;;;;;11.73;7.82;;;;;;;18.66;44.52;100880.00;5048271;28;20052;-35
2023/03/18 02:06:53;;;;;;;13.18;8.18;;;;;;;18.65;44.61;100884.53;5047181;28;20049;-36
2023/03/18 02:09:19;;;;;;;11.68;7.97;;;;;;;18.65;44.56;100879.16;5050580;28;20051;-35
2023/03/18 02:11:50;;;;;;;11.35;6.82;;;;;;;18.66;44.21;100875.47;5051219;28;20041;-36
2023/03/18 02:14:23;;;;;;;11.00;6.85;;;;;;;18.63;44.31;100875.75;5050787;28;20344;-34
2023/03/18 02:16:59;;;;;;;11.80;7.15;;;;;;;18.62;44.25;100873.25;5050330;28;20456;-34
2023/03/18 02:19:57;;;;;;;12.05;7.03;;;;;;;18.61;44.35;100880.44;5049896;28;20392;-35
2023/03/18 02:22:46;;;;;;;12.43;7.85;;;;;;;18.61;44.46;100885.81;5049179;28;20356;-33
2023/03/18 02:25:30;;;;;;;11.85;7.45;;;;;;;18.61;44.21;100885.81;5048043;28;20057;-34
2023/03/18 02:28:02;;;;;;;10.07;6.80;;;;;;;18.61;44.60;100877.75;5050137;28;20045;-34
2023/03/18 02:30:36;;;;;;;10.48;6.65;;;;;;;18.59;44.43;100871.72;5048603;28;20120;-34
2023/03/18 02:33:04;;;;;;;10.70;7.00;;;;;;;18.61;44.60;100882.28;5049208;28;20079;-36
2023/03/18 02:35:31;;;;;;;11.65;6.70;;;;;;;18.59;44.71;100886.97;5054302;28;20341;-35
2023/03/18 02:37:58;;;;;;;10.65;6.88;;;;;;;18.59;44.26;100870.88;5048147;28;20104;-33
2023/03/18 02:40:35;;;;;;;10.27;6.30;;;;;;;18.58;44.25;100875.41;5046774;28;20143;-36
2023/03/18 02:43:18;;;;;;;12.32;6.85;;;;;;;18.56;44.30;100882.75;5045278;28;20405;-35
2023/03/18 02:46:20;;;;;;;10.80;6.45;;;;;;;18.56;44.15;100892.66;5049763;28;21052;-35
2023/03/18 02:48:48;;;;;;;10.48;5.88;;;;;;;18.56;44.50;100890.81;5054379;28;20055;-35
2023/03/18 02:51:16;;;;;;;11.48;6.75;;;;;;;18.57;44.47;100894.31;5051574;28;20063;-34
2023/03/18 02:53:42;;;;;;;11.57;6.63;;;;;;;18.56;44.52;100888.13;5049466;28;20052;-33
2023/03/18 02:56:10;;;;;;;10.05;6.25;;;;;;;18.56;44.50;100881.91;5047785;28;20049;-34
2023/03/18 02:58:36;;;;;;;10.02;6.20;;;;;;;18.55;44.38;100885.59;5049450;28;20049;-34
2023/03/18 03:01:06;;;;;;;9.90;6.45;;;;;;;18.55;44.40;100891.81;5050665;28;20128;-34
2023/03/18 03:03:34;;;;;;;8.43;5.80;;;;;;;18.54;44.35;100876.72;5051501;28;20047;-34
2023/03/18 03:06:02;;;;;;;8.40;6.18;;;;;;;18.55;44.37;100901.72;5046218;28;20089;-34
2023/03/18 03:08:29;;;;;;;11.20;6.05;;;;;;;18.55;44.51;100894.50;5050020;28;20151;-34
2023/03/18 03:10:56;;;;;;;10.82;6.75;;;;;;;18.54;44.63;100890.13;5045367;28;20056;-35
2023/03/18 03:13:23;;;;;;;11.18;5.90;;;;;;;18.54;44.43;100895.50;5046133;28;20051;-35
2023/03/18 03:15:50;;;;;;;8.68;5.90;;;;;;;18.52;44.65;100902.84;5048424;28;20076;-34
2023/03/18 03:18:17;;;;;;;11.05;6.40;;;;;;;18.52;44.33;100905.53;5046700;28;20040;-34
2023/03/18 03:20:44;;;;;;;9.77;5.68;;;;;;;18.52;45.01;100904.69;5049978;28;20282;-34
2023/03/18 03:23:14;;;;;;;8.88;5.93;;;;;;;18.51;44.51;100914.59;5047430;28;20075;-34
2023/03/18 03:25:43;;;;;;;9.00;5.40;;;;;;;18.50;44.48;100902.19;5047045;28;20049;-34
2023/03/18 03:28:12;;;;;;;9.73;6.03;;;;;;;18.50;44.49;100912.91;5048838;28;20388;-35
2023/03/18 03:30:39;;;;;;;10.02;6.07;;;;;;;18.49;44.53;100905.84;5046927;28;20045;-34
2023/03/18 03:33:06;;;;;;;8.73;5.28;;;;;;;18.48;44.30;100910.38;5048374;28;20356;-33
2023/03/18 03:35:33;;;;;;;8.65;5.57;;;;;;;18.48;44.47;100913.06;5051655;28;20118;-34
2023/03/18 03:37:59;;;;;;;8.63;5.78;;;;;;;18.49;44.65;100919.25;5048494;28;20345;-33
2023/03/18 03:40:27;;;;;;;9.43;5.85;;;;;;;18.46;44.48;100915.06;5046498;28;20455;-35
2023/03/18 03:42:53;;;;;;;8.48;5.45;;;;;;;18.47;44.55;100915.91;5050088;28;20040;-33
2023/03/18 03:45:20;;;;;;;8.30;5.38;;;;;;;18.46;44.72;100911.53;5046490;28;20444;-35
2023/03/18 03:47:47;;;;;;;8.90;5.32;;;;;;;18.47;44.48;100918.59;5050326;28;20447;-34
2023/03/18 03:50:15;;;;;;;8.50;5.05;;;;;;;18.45;44.12;100918.75;5048723;28;20060;-34
2023/03/18 03:52:43;;;;;;;7.32;4.97;;;;;;;18.46;44.68;100914.22;5045878;28;20432;-35
2023/03/18 03:55:12;;;;;;;8.60;5.20;;;;;;;18.45;44.60;100912.50;5047897;28;20061;-35
2023/03/18 03:57:40;;;;;;;9.13;5.80;;;;;;;18.44;44.89;100917.03;5048475;28;20376;-34
2023/03/18 04:00:13;;;;;;;8.82;5.45;;;;;;;18.44;44.50;100917.03;5049713;28;20059;-34
2023/03/18 04:02:42;;;;;;;11.48;5.68;;;;;;;18.44;44.70;100916.19;5044103;28;20136;-34
2023/03/18 04:05:10;;;;;;;8.93;5.53;;;;;;;18.42;44.63;100916.38;5045929;28;20156;-35
2023/03/18 04:07:38;;;;;;;9.10;5.25;;;;;;;18.41;44.47;100920.06;5049815;28;20049;-34
2023/03/18 04:10:08;;;;;;;7.95;5.22;;;;;;;18.41;44.28;100913.81;5050959;28;20057;-35
2023/03/18 04:12:35;;;;;;;10.68;5.38;;;;;;;18.41;44.76;100913.81;5052591;28;20270;-35
2023/03/18 04:15:02;;;;;;;9.52;5.53;;;;;;;18.41;44.88;100914.69;5047456;28;20059;-34
2023/03/18 04:17:29;;;;;;;10.30;5.57;;;;;;;18.41;44.83;100924.56;5046465;28;20045;-35
2023/03/18 04:19:55;;;;;;;10.13;5.32;;;;;;;18.38;44.78;100925.72;5049479;28;20053;-33
2023/03/18 04:22:22;;;;;;;8.73;5.32;;;;;;;18.39;44.63;100916.66;5044510;28;20049;-34
2023/03/18 04:24:49;;;;;;;10.10;5.57;;;;;;;18.40;45.02;100922.88;5045719;28;20049;-34
2023/03/18 04:27:17;;;;;;;8.23;4.70;;;;;;;18.39;44.40;100921.19;5048171;28;20057;-34
2023/03/18 04:29:44;;;;;;;7.78;4.57;;;;;;;18.38;44.89;100922.19;5044075;28;20136;-34
2023/03/18 04:32:10;;;;;;;7.35;4.93;;;;;;;18.36;45.06;100916.97;5047448;28;20041;-34
2023/03/18 04:34:37;;;;;;;7.63;4.47;;;;;;;18.36;44.69;100919.66;5047822;28;20060;-35
2023/03/18 04:37:04;;;;;;;8.93;4.72;;;;;;;18.36;44.52;100922.34;5047822;28;20080;-35
2023/03/18 04:39:30;;;;;;;7.57;4.00;;;;;;;18.37;44.63;100920.50;5048810;28;20051;-34
2023/03/18 04:41:57;;;;;;;8.15;4.70;;;;;;;18.37;44.50;100920.50;5042658;28;20075;-36
2023/03/18 04:44:24;;;;;;;8.60;4.53;;;;;;;18.36;44.68;100924.19;5049687;28;20064;-34
2023/03/18 04:46:52;;;;;;;7.05;4.18;;;;;;;18.35;45.05;100934.06;5049234;28;20433;-34
2023/03/18 04:49:20;;;;;;;7.20;4.30;;;;;;;18.36;44.64;100938.44;5052536;28;20343;-34
2023/03/18 04:51:46;;;;;;;8.15;4.80;;;;;;;18.36;44.72;100937.59;5051134;28;20041;-35
2023/03/18 04:54:13;;;;;;;8.68;4.75;;;;;;;18.36;44.99;100940.28;5049981;28;20356;-35
2023/03/18 04:56:40;;;;;;;7.47;4.35;;;;;;;18.37;44.30;100950.00;5050594;28;20045;-34
2023/03/18 04:59:06;;;;;;;6.00;3.95;;;;;;;18.33;45.03;100946.81;5051823;28;20052;-35
2023/03/18 05:01:33;;;;;;;7.82;4.68;;;;;;;18.34;44.60;100947.66;5050027;28;20044;-34
2023/03/18 05:04:00;;;;;;;5.55;3.80;;;;;;;18.33;44.75;100962.03;5045071;28;20130;-35
2023/03/18 05:06:30;;;;;;;6.88;4.13;;;;;;;18.32;44.58;100971.94;5050533;28;20095;-35
2023/03/18 05:08:57;;;;;;;6.90;4.20;;;;;;;18.32;44.77;100971.94;5050546;28;20132;-35
2023/03/18 05:11:25;;;;;;;7.07;3.78;;;;;;;18.32;45.16;100981.84;5050673;28;20059;-35
2023/03/18 05:13:52;;;;;;;5.53;3.80;;;;;;;18.31;44.96;100982.84;5050833;28;20848;-34
2023/03/18 05:16:18;;;;;;;8.75;3.95;;;;;;;18.31;45.27;100994.41;5046446;28;20080;-35
2023/03/18 05:18:45;;;;;;;6.43;4.28;;;;;;;18.31;44.99;100990.88;5046246;28;20072;-34
2023/03/18 05:21:12;;;;;;;5.88;3.92;;;;;;;18.30;45.25;100979.31;5047184;28;20428;-34
2023/03/18 05:23:38;;;;;;;6.55;3.70;;;;;;;18.30;44.93;100983.84;5046134;28;20341;-34
2023/03/18 05:26:05;;;;;;;8.05;4.00;;;;;;;18.31;45.15;100982.84;5045122;28;20045;-34
2023/03/18 05:28:33;;;;;;;6.35;4.03;;;;;;;18.30;44.79;100990.03;5045643;28;20048;-34
2023/03/18 05:30:59;;;;;;;6.70;4.05;;;;;;;18.30;44.69;100983.84;5045406;28;20056;-34
2023/03/18 05:33:26;;;;;;;5.07;3.35;;;;;;;18.30;45.17;100981.16;5046716;28;20326;-35
2023/03/18 05:35:52;;;;;;;5.03;3.58;;;;;;;18.30;45.23;100986.53;5045119;28;20060;-33
2023/03/18 05:38:19;;;;;;;6.47;4.15;;;;;;;18.29;44.79;100996.41;5047136;28;20083;-35
2023/03/18 05:40:46;;;;;;;6.72;3.92;;;;;;;18.29;44.92;100992.88;5049245;28;20071;-34
2023/03/18 05:43:12;;;;;;;6.50;3.20;;;;;;;18.28;44.82;100988.50;5048151;28;20099;-35
2023/03/18 05:45:39;;;;;;;6.05;3.75;;;;;;;18.27;45.14;100984.97;5049863;28;20045;-34
2023/03/18 05:48:07;;;;;;;7.32;3.63;;;;;;;18.28;44.94;100996.56;5048836;28;20056;-34
2023/03/18 05:50:37;;;;;;;5.03;3.15;;;;;;;18.29;45.24;100995.53;5047265;28;20057;-34
2023/03/18 05:53:05;;;;;;;5.85;3.53;;;;;;;18.27;45.23;100994.88;5050165;28;20051;-34
2023/03/18 05:55:32;;;;;;;5.75;3.50;;;;;;;18.28;45.23;100993.88;5049451;28;20053;-34
2023/03/18 05:57:59;;;;;;;6.82;3.83;;;;;;;18.28;45.19;100996.56;5050670;28;20059;-34
2023/03/18 06:00:30;;;;;;;6.10;3.25;;;;;;;18.28;45.25;101004.59;5047502;28;20440;-34
2023/03/18 06:02:58;;;;;;;4.82;3.60;;;;;;;18.27;45.29;101005.59;5047303;28;20045;-34
2023/03/18 06:05:26;;;;;;;5.32;3.40;;;;;;;18.28;45.33;101005.44;5050293;28;20111;-35
2023/03/18 06:07:53;;;;;;;5.03;2.97;;;;;;;18.26;44.88;101002.06;5051072;28;20436;-34
2023/03/18 06:10:21;;;;;;;5.03;3.53;;;;;;;18.25;45.54;100998.56;5052156;28;20086;-34
2023/03/18 06:12:49;;;;;;;5.03;3.17;;;;;;;18.25;45.29;100998.56;5053344;28;20044;-33
2023/03/18 06:15:17;;;;;;;5.35;2.88;;;;;;;18.25;45.26;101000.38;5051622;28;20110;-33
2023/03/18 06:17:44;;;;;;;6.55;3.53;;;;;;;18.24;45.01;100999.53;5053100;28;20322;-35
2023/03/18 06:20:12;;;;;;;6.15;3.00;;;;;;;18.23;45.36;101003.22;5048428;28;20060;-35
2023/03/18 06:22:39;;;;;;;3.35;2.53;;;;;;;18.24;45.11;101007.56;5049903;28;20127;-34
2023/03/18 06:25:07;;;;;;;5.47;3.22;;;;;;;18.24;45.10;101007.56;5050161;28;20333;-33
2023/03/18 06:27:34;;;;;;;6.10;3.05;;;;;;;18.25;45.05;101014.66;5050886;28;20080;-33
2023/03/18 06:30:03;;;;;;;4.95;2.90;;;;;;;18.25;45.38;101014.66;5047083;28;20147;-34
2023/03/18 06:32:31;;;;;;;5.45;3.17;;;;;;;18.24;45.49;101023.69;5050389;28;20075;-33
2023/03/18 06:34:59;;;;;;;6.05;2.70;;;;;;;18.26;44.97;101023.53;5050983;28;20088;-35
2023/03/18 06:37:25;;;;;;;4.30;2.72;;;;;;;18.25;45.35;101025.38;5049546;28;20055;-34
2023/03/18 06:39:52;;;;;;;5.53;2.67;;;;;;;18.25;44.81;101036.13;5048943;28;20476;-35
2023/03/18 06:42:19;;;;;;;4.88;2.78;;;;;;;18.25;45.13;101041.50;5047336;28;20049;-34
2023/03/18 06:44:49;;;;;;;5.13;3.20;;;;;;;18.25;44.90;101029.88;5052805;28;20052;-34
2023/03/18 06:47:21;;;;;;;4.35;2.85;;;;;;;18.24;45.11;101031.72;5050381;28;20053;-33
2023/03/18 06:49:48;;;;;;;5.20;2.83;;;;;;;18.23;45.05;101027.34;5051250;28;20045;-33
2023/03/18 06:52:16;;;;;;;3.58;2.63;;;;;;;18.24;44.88;101037.09;5049764;28;20049;-34
2023/03/18 06:54:43;;;;;;;3.67;2.60;;;;;;;18.24;45.36;101053.19;5051133;28;20448;-35
2023/03/18 06:57:10;;;;;;;6.03;2.90;;;;;;;18.24;45.05;101055.03;5053053;28;20656;-34
2023/03/18 06:59:38;;;;;;;6.25;3.50;;;;;;;18.23;45.14;101043.47;5043735;28;20054;-34
2023/03/18 07:02:04;;;;;;;7.63;2.92;;;;;;;18.23;45.15;101043.47;5044959;28;20068;-34
2023/03/18 07:04:32;;;;;;;4.03;2.50;;;;;;;18.23;45.42;101050.66;5044693;28;20056;-34
2023/03/18 07:06:59;;;;;;;5.03;2.95;;;;;;;18.23;45.13;101048.81;5051448;28;20060;-35
2023/03/18 07:09:27;;;;;;;4.38;2.83;;;;;;;18.23;45.38;101059.56;5051904;28;20263;-34
2023/03/18 07:11:53;;;;;;;4.90;2.90;;;;;;;18.24;45.71;101063.06;5045283;28;20049;-35
2023/03/18 07:14:20;;;;;;;4.15;3.00;;;;;;;18.24;45.06;101060.41;5046222;28;20439;-34
2023/03/18 07:16:47;;;;;;;4.38;2.92;;;;;;;18.25;45.08;101067.44;5042011;28;20064;-35
2023/03/18 07:19:14;;;;;;;4.38;2.80;;;;;;;18.26;45.29;101066.47;5051516;28;20049;-35
2023/03/18 07:21:42;;;;;;;3.85;2.83;;;;;;;18.28;44.99;101077.03;5050567;28;20049;-34
2023/03/18 07:24:10;;;;;;;3.97;2.65;;;;;;;18.29;45.34;101076.91;5052376;28;20049;-35
2023/03/18 07:26:37;;;;;;;4.32;2.70;;;;;;;18.29;45.13;101073.34;5046260;28;20143;-35
2023/03/18 07:29:04;;;;;;;4.47;2.67;;;;;;;18.30;45.29;101069.72;5047075;28;20076;-35
2023/03/18 07:31:30;;;;;;;4.30;2.70;;;;;;;18.31;45.66;101076.75;5051554;28;20057;-35
2023/03/18 07:33:58;;;;;;;3.85;2.28;;;;;;;18.31;45.39;101077.59;5050742;28;20103;-34
2023/03/18 07:36:25;;;;;;;6.22;3.53;;;;;;;18.32;45.30;101076.59;5047956;28;20103;-33
2023/03/18 07:38:52;;;;;;;4.32;2.75;;;;;;;18.34;45.61;101087.19;5047313;28;20134;-33
2023/03/18 07:41:18;;;;;;;5.07;3.05;;;;;;;18.35;45.78;101094.25;5045824;28;20084;-35
2023/03/18 07:43:45;;;;;;;4.32;2.97;;;;;;;18.37;45.18;101097.59;5046220;28;20080;-34
2023/03/18 07:46:12;;;;;;;6.25;3.45;;;;;;;18.38;45.56;101084.06;5044465;28;20107;-35
2023/03/18 07:48:38;;;;;;;5.85;3.40;;;;;;;18.40;45.15;101086.56;5039413;28;20460;-34
2023/03/18 07:51:05;;;;;;;8.65;2.92;;;;;;;18.41;45.43;101086.44;5049334;28;20048;-34
2023/03/18 07:53:32;;;;;;;5.95;3.20;;;;;;;18.44;45.65;101085.28;5045043;28;20393;-34
2023/03/18 07:55:59;;;;;;;5.43;3.22;;;;;;;18.45;45.40;101078.91;5044247;28;20051;-34
2023/03/18 07:58:26;;;;;;;4.55;3.25;;;;;;;18.46;45.67;101086.00;5048905;28;20049;-34
2023/03/18 08:00:53;;;;;;;6.45;3.50;;;;;;;18.48;45.48;101090.19;5046329;28;20340;-34
2023/03/18 08:03:19;;;;;;;7.50;4.22;;;;;;;18.50;45.75;101096.28;5044859;28;20132;-33
2023/03/18 08:05:46;;;;;;;5.13;3.65;;;;;;;18.54;45.49;101091.44;5050147;28;20072;-35
2023/03/18 08:08:13;;;;;;;6.00;4.00;;;;;;;18.57;45.31;101087.59;5048758;28;20045;-35
2023/03/18 08:10:39;;;;;;;4.85;3.40;;;;;;;18.60;45.83;101095.34;5046956;28;20052;-34
2023/03/18 08:13:06;;;;;;;5.25;3.65;;;;;;;18.64;45.62;101086.00;5043952;28;20072;-35
2023/03/18 08:15:32;;;;;;;5.43;3.67;;;;;;;18.68;45.36;101084.69;5038371;28;20136;-35
2023/03/18 08:18:00;;;;;;;7.28;3.60;;;;;;;18.72;45.49;101086.13;5042759;28;20115;-33
2023/03/18 08:20:27;;;;;;;6.57;4.05;;;;;;;18.76;45.33;101074.06;5045848;28;20041;-34
2023/03/18 08:22:54;;;;;;;7.70;4.60;;;;;;;18.81;45.04;101076.31;5044892;28;20098;-35
2023/03/18 08:25:22;;;;;;;7.28;4.50;;;;;;;18.85;45.21;101075.00;5041620;28;20040;-34
2023/03/18 08:27:49;;;;;;;6.63;4.25;;;;;;;18.89;45.52;101077.22;5047383;28;20349;-34
2023/03/18 08:30:16;;;;;;;6.30;4.72;;;;;;;18.92;45.25;101078.75;5046058;28;20053;-34
2023/03/18 08:32:43;;;;;;;9.75;5.70;;;;;;;18.95;44.91;101075.78;5045043;28;20128;-34
2023/03/18 08:35:11;;;;;;;9.68;5.95;;;;;;;18.99;44.99;101082.53;5040824;28;20136;-36
2023/03/18 08:37:38;;;;;;;9.50;5.65;;;;;;;19.03;44.54;101083.06;5049139;28;20127;-35
2023/03/18 08:40:05;;;;;;;11.05;6.03;;;;;;;19.06;44.69;101080.09;5049871;28;20340;-34
2023/03/18 08:42:31;;;;;;;11.45;6.63;;;;;;;19.10;45.00;101090.34;5051346;28;20224;-34
2023/03/18 08:44:58;;;;;;;10.77;6.88;;;;;;;19.13;45.22;101092.72;5049084;28;20048;-35
2023/03/18 08:47:26;;;;;;;10.65;6.40;;;;;;;19.15;45.45;101082.66;5048269;28;20102;-35
2023/03/18 08:49:52;;;;;;;10.30;5.78;;;;;;;19.19;45.00;101093.97;5046103;28;20095;-35
2023/03/18 08:52:21;;;;;;;11.63;5.88;;;;;;;19.21;44.67;101092.78;5042274;28;20149;-35
2023/03/18 08:54:48;;;;;;;8.45;5.65;;;;;;;19.23;45.02;101098.84;5040281;28;20175;-34
2023/03/18 08:57:14;;;;;;;9.25;5.60;;;;;;;19.26;44.93;101094.16;5037803;28;20448;-34
2023/03/18 08:59:41;;;;;;;8.40;5.80;;;;;;;19.29;45.25;101096.53;5047670;28;20044;-35
2023/03/18 09:02:15;;;;;;;9.90;5.68;;;;;;;19.30;45.03;101106.31;5040326;28;20144;-34
2023/03/18 09:04:42;;;;;;;7.95;4.82;;;;;;;19.32;44.92;101102.44;5044615;28;20499;-35
2023/03/18 09:07:10;;;;;;;9.15;5.10;;;;;;;19.35;44.87;101098.63;5043775;28;20060;-35
2023/03/18 09:09:36;;;;;;;8.00;5.03;;;;;;;19.36;44.77;101095.75;5043052;28;20045;-36
2023/03/18 09:12:11;;;;;;;9.32;5.32;;;;;;;19.40;44.80;101099.00;5045155;28;20412;-35
2023/03/18 09:14:39;;;;;;;10.13;5.40;;;;;;;19.41;44.74;101103.34;5047344;28;20080;-36
2023/03/18 09:17:05;;;;;;;8.90;5.20;;;;;;;19.43;44.27;101106.75;5048038;28;20440;-34
2023/03/18 09:19:32;;;;;;;8.63;5.18;;;;;;;19.46;44.77;101104.59;5050538;28;20462;-35
2023/03/18 09:21:58;;;;;;;9.93;5.25;;;;;;;19.49;44.41;101108.78;5046699;28;20613;-36
2023/03/18 09:24:25;;;;;;;10.25;5.25;;;;;;;19.52;44.56;101107.66;5042613;28;20409;-35
2023/03/18 09:26:52;;;;;;;9.13;5.38;;;;;;;19.55;45.09;101118.94;5049671;28;20127;-36
2023/03/18 09:29:18;;;;;;;9.48;5.43;;;;;;;19.59;44.60;101131.06;5042447;28;20075;-35
2023/03/18 09:31:45;;;;;;;9.32;5.47;;;;;;;19.62;44.63;101135.31;5043547;28;20140;-36
2023/03/18 09:34:13;;;;;;;8.60;5.00;;;;;;;19.64;45.13;101136.00;5043380;28;20056;-37
2023/03/18 09:36:41;;;;;;;10.50;5.15;;;;;;;19.66;44.66;101134.00;5044654;28;20052;-35
2023/03/18 09:39:08;;;;;;;9.30;5.45;;;;;;;19.67;45.06;101141.91;5040831;28;20076;-35
2023/03/18 09:41:50;;;;;;;8.63;5.07;;;;;;;19.69;44.79;101137.19;5040446;28;20051;-35
2023/03/18 09:44:23;;;;;;;10.60;5.28;;;;;;;19.75;44.49;101137.59;5046923;28;20120;-35
2023/03/18 09:47:17;;;;;;;9.77;5.15;;;;;;;19.77;44.80;101130.19;5048191;28;20428;-35
2023/03/18 09:50:26;;;;;;;8.52;4.90;;;;;;;19.81;45.20;101134.25;5042382;28;20056;-34
2023/03/18 09:53:08;;;;;;;9.82;5.63;;;;;;;19.88;44.94;101124.56;5041035;28;20049;-35
2023/03/18 09:55:51;;;;;;;8.82;5.00;;;;;;;19.93;44.84;101136.50;5046300;28;20053;-36
2023/03/18 09:58:45;;;;;;;10.50;5.88;;;;;;;19.96;45.01;101135.38;5041912;28;20053;-35
2023/03/18 10:01:12;;;;;;;9.13;5.10;;;;;;;20.03;44.60;101135.59;5040123;28;20084;-35
2023/03/18 10:03:49;;;;;;;7.88;5.10;;;;;;;20.08;44.46;101122.50;5043187;28;20052;-35
2023/03/18 10:06:19;;;;;;;9.25;5.45;;;;;;;20.14;45.29;101135.28;5048060;28;20139;-35
2023/03/18 10:08:55;;;;;;;8.63;5.72;;;;;;;20.17;44.98;101127.75;5041555;28;20067;-35
2023/03/18 10:11:32;;;;;;;10.18;5.55;;;;;;;20.25;45.15;101115.31;5040768;28;20055;-35
2023/03/18 10:14:22;;;;;;;9.65;5.75;;;;;;;20.30;45.09;101118.38;5041625;28;20134;-35
2023/03/18 10:17:15;;;;;;;9.05;5.07;;;;;;;20.31;44.65;101118.22;5044102;28;20059;-35
2023/03/18 10:19:47;;;;;;;9.18;5.40;;;;;;;20.34;44.97;101111.66;5042903;28;20581;-36
2023/03/18 10:22:36;;;;;;;7.50;5.30;;;;;;;20.34;44.89;101117.03;5045485;28;20112;-36
2023/03/18 10:25:34;;;;;;;9.73;5.40;;;;;;;20.36;44.37;101115.88;5040471;28;20600;-36
2023/03/18 10:28:00;;;;;;;9.48;5.75;;;;;;;20.37;44.42;101128.31;5047384;28;20080;-35
2023/03/18 10:30:37;;;;;;;9.95;5.40;;;;;;;20.36;44.20;101123.13;5046763;28;20123;-36
2023/03/18 10:33:04;;;;;;;10.43;5.70;;;;;;;20.36;44.41;101121.25;5046017;28;20095;-35
2023/03/18 10:35:57;;;;;;;7.50;5.15;;;;;;;20.34;44.36;101128.69;5041790;28;20045;-35
2023/03/18 10:38:30;;;;;;;9.25;5.20;;;;;;;20.36;43.94;101126.66;5041247;28;20056;-35
2023/03/18 10:40:57;;;;;;;9.25;5.50;;;;;;;20.34;44.13;101120.59;5049815;28;20067;-35
2023/03/18 10:43:28;;;;;;;9.00;5.38;;;;;;;20.34;44.39;101131.38;5043926;28;20041;-35
2023/03/18 10:46:06;;;;;;;9.15;5.13;;;;;;;20.33;44.00;101131.50;5037260;28;20072;-36
2023/03/18 10:48:44;;;;;;;8.40;5.50;;;;;;;20.33;43.92;101132.34;5043910;28;20049;-35
2023/03/18 10:51:30;;;;;;;7.80;4.82;;;;;;;20.31;44.14;101129.00;5044676;28;20053;-35
2023/03/18 10:54:14;;;;;;;7.80;5.13;;;;;;;20.31;44.65;101125.47;5044388;28;20490;-35
2023/03/18 10:56:41;;;;;;;56.33;21.38;;;;;;;20.31;44.35;101131.69;5040611;28;20059;-37
2023/03/18 10:59:15;;;;;;;56.63;26.27;;;;;;;20.27;47.05;101137.56;5059479;28;20048;-36
2023/03/18 11:01:52;;;;;;;55.90;25.40;;;;;;;20.23;46.82;101138.88;5042103;28;20429;-35
2023/03/18 11:04:22;;;;;;;55.53;23.83;;;;;;;20.23;47.23;101137.03;5046586;28;20064;-35
2023/03/18 11:06:58;;;;;;;43.00;19.15;;;;;;;20.22;46.92;101132.63;5052476;28;20049;-35
2023/03/18 11:09:35;;;;;;;40.45;18.20;;;;;;;20.22;46.31;101135.31;5048383;28;20052;-35
2023/03/18 11:12:13;;;;;;;39.20;17.38;;;;;;;20.22;46.43;101138.00;5050003;28;20049;-35
2023/03/18 11:14:47;;;;;;;27.52;15.27;;;;;;;20.23;46.01;101130.81;5050896;28;20045;-35
2023/03/18 11:17:22;;;;;;;34.80;14.98;;;;;;;20.22;45.98;101132.63;5046949;28;20609;-35
2023/03/18 11:19:59;;;;;;;30.73;15.00;;;;;;;20.21;46.19;101131.78;5045149;28;20055;-35
2023/03/18 11:22:26;;;;;;;21.83;12.32;;;;;;;20.22;45.91;101127.25;5041116;28;20103;-34
2023/03/18 11:25:22;;;;;;;25.73;13.38;;;;;;;20.21;45.57;101133.66;5040696;28;20037;-35
2023/03/18 11:27:51;;;;;;;17.95;10.70;;;;;;;20.23;45.38;101136.19;5046110;28;20444;-35
2023/03/18 11:30:23;;;;;;;33.53;13.07;;;;;;;20.21;45.91;101139.88;5051597;28;20122;-34
2023/03/18 11:33:09;;;;;;;21.77;12.05;;;;;;;20.21;45.99;101131.78;5051811;28;20428;-34